Time;durP1;ratioP1;P1;durP2;ratioP2;P2;SDS_P1;SDS_P2;PMS_P1;PMS_P2;Temp;Humidity;BMP_temperature;BMP_pressure;BME280_temperature;BME280_humidity;BME280_pressure;Samples;Min_cycle;Max_cycle;Signal;HPM_P1;HPM_P2
2021/05/02 00:01:09;;;;;;;20.07;12.83;;;9.00;99.90;;;;;;4455678;32;20158;-74
2021/05/02 00:03:36;;;;;;;18.00;12.23;;;9.10;99.90;;;;;;4455819;32;20155;-73
2021/05/02 00:06:05;;;;;;;18.47;12.00;;;9.00;99.90;;;;;;4456142;32;20135;-73
2021/05/02 00:08:32;;;;;;;19.00;12.37;;;9.00;99.90;;;;;;4455269;32;20146;-73
2021/05/02 00:10:59;;;;;;;19.70;12.47;;;9.10;99.90;;;;;;4455556;32;20147;-73
2021/05/02 00:13:25;;;;;;;20.83;13.10;;;9.10;99.90;;;;;;4455640;32;20150;-73
2021/05/02 00:15:52;;;;;;;22.70;12.57;;;9.10;99.90;;;;;;4441028;32;20201;-73
2021/05/02 00:18:24;;;;;;;20.93;12.70;;;9.10;99.90;;;;;;4454910;32;20187;-74
2021/05/02 00:20:52;;;;;;;20.77;12.70;;;9.20;99.90;;;;;;4455485;32;20221;-74
2021/05/02 00:23:19;;;;;;;18.77;12.40;;;9.20;99.90;;;;;;4456148;32;20427;-73
2021/05/02 00:25:47;;;;;;;21.27;12.73;;;9.20;99.90;;;;;;4456972;32;20162;-74
2021/05/02 00:28:15;;;;;;;18.50;12.03;;;9.10;99.90;;;;;;4455514;32;20189;-74
2021/05/02 00:30:42;;;;;;;18.03;11.70;;;9.10;99.90;;;;;;4455452;32;20150;-74
2021/05/02 00:33:10;;;;;;;20.53;12.13;;;9.10;99.90;;;;;;4455338;32;20150;-74
2021/05/02 00:35:38;;;;;;;20.23;12.17;;;9.20;99.90;;;;;;4455244;32;20143;-73
2021/05/02 00:38:04;;;;;;;20.30;12.17;;;9.10;99.90;;;;;;4456182;32;20420;-74
2021/05/02 00:40:43;;;;;;;18.13;12.03;;;9.10;99.90;;;;;;4456861;32;20142;-75
2021/05/02 00:43:18;;;;;;;19.43;12.57;;;9.10;99.90;;;;;;4455275;32;20519;-74
2021/05/02 00:45:57;;;;;;;20.37;11.87;;;9.10;99.90;;;;;;4456418;32;20138;-75
2021/05/02 00:48:37;;;;;;;18.83;12.27;;;9.10;99.90;;;;;;4452507;32;20154;-73
2021/05/02 00:51:06;;;;;;;19.50;12.20;;;9.10;99.90;;;;;;4452977;32;20204;-74
2021/05/02 00:53:48;;;;;;;18.20;12.20;;;9.10;99.90;;;;;;4453577;32;20241;-73
2021/05/02 00:56:28;;;;;;;19.43;12.43;;;9.10;99.90;;;;;;4451959;32;20154;-74
2021/05/02 00:59:03;;;;;;;18.00;11.33;;;8.90;99.90;;;;;;4452972;32;20203;-75
2021/05/02 01:01:36;;;;;;;20.87;12.77;;;8.90;99.90;;;;;;4453807;32;20605;-75
2021/05/02 01:04:03;;;;;;;20.10;12.30;;;8.90;99.90;;;;;;4453232;32;20221;-75
2021/05/02 01:06:31;;;;;;;17.30;11.60;;;8.90;99.90;;;;;;4455695;32;20221;-75
2021/05/02 01:09:01;;;;;;;19.43;12.13;;;8.90;99.90;;;;;;4455431;32;20186;-75
2021/05/02 01:11:29;;;;;;;19.07;11.93;;;8.90;99.90;;;;;;4456244;32;20342;-75
2021/05/02 01:13:58;;;;;;;19.33;12.20;;;8.80;99.90;;;;;;4454469;32;20139;-75
2021/05/02 01:16:28;;;;;;;20.87;12.50;;;8.70;99.90;;;;;;4456141;32;20174;-75
2021/05/02 01:18:55;;;;;;;19.10;12.37;;;8.80;99.90;;;;;;4455122;32;20180;-75
2021/05/02 01:21:39;;;;;;;18.07;12.10;;;8.80;99.90;;;;;;4456507;32;20177;-75
2021/05/02 01:24:11;;;;;;;19.07;12.27;;;8.80;99.90;;;;;;4455387;32;20198;-75
2021/05/02 01:26:42;;;;;;;18.93;11.93;;;8.90;99.90;;;;;;4454958;32;20147;-75
2021/05/02 01:29:10;;;;;;;19.83;12.47;;;8.80;99.90;;;;;;4457203;32;20182;-75
2021/05/02 01:31:37;;;;;;;21.47;12.53;;;8.80;99.90;;;;;;4459599;32;20146;-75
2021/05/02 01:34:04;;;;;;;19.83;12.43;;;8.90;99.90;;;;;;4459122;32;20421;-75
2021/05/02 01:36:31;;;;;;;19.53;12.63;;;8.90;99.90;;;;;;4458030;32;20149;-75
2021/05/02 01:38:59;;;;;;;19.60;12.30;;;8.90;99.90;;;;;;4459348;32;20479;-75
2021/05/02 01:41:26;;;;;;;18.70;12.33;;;8.80;99.90;;;;;;4459426;32;20142;-75
2021/05/02 01:43:54;;;;;;;17.67;12.37;;;8.80;99.90;;;;;;4457809;32;20154;-75
2021/05/02 01:46:37;;;;;;;20.20;12.60;;;8.70;99.90;;;;;;4445477;32;20158;-75
2021/05/02 01:49:08;;;;;;;20.37;12.13;;;8.80;99.90;;;;;;4459468;32;20164;-75
2021/05/02 01:51:36;;;;;;;21.43;12.70;;;8.80;99.90;;;;;;4458038;32;20139;-75
2021/05/02 01:54:03;;;;;;;15.50;10.97;;;8.70;99.90;;;;;;4458374;32;20166;-75
2021/05/02 01:56:32;;;;;;;19.43;12.63;;;8.80;99.90;;;;;;4458378;32;20186;-74
2021/05/02 01:59:00;;;;;;;19.20;12.67;;;8.80;99.90;;;;;;4457594;32;20153;-74
2021/05/02 02:01:29;;;;;;;18.30;12.03;;;8.80;99.90;;;;;;4457637;32;20164;-74
2021/05/02 02:03:59;;;;;;;17.67;12.37;;;8.70;99.90;;;;;;4458963;32;20480;-75
2021/05/02 02:06:28;;;;;;;17.83;12.03;;;8.80;99.90;;;;;;4457555;32;20187;-75
2021/05/02 02:08:58;;;;;;;21.43;13.50;;;8.80;99.90;;;;;;4457096;32;20185;-75
2021/05/02 02:11:29;;;;;;;19.73;12.60;;;8.80;99.90;;;;;;4457466;32;20177;-75
2021/05/02 02:13:56;;;;;;;18.03;12.10;;;8.80;99.90;;;;;;4458040;32;20139;-75
2021/05/02 02:16:24;;;;;;;16.83;11.63;;;8.80;99.90;;;;;;4457466;32;20201;-75
2021/05/02 02:18:51;;;;;;;18.33;12.30;;;8.80;99.90;;;;;;4458252;32;20227;-75
2021/05/02 02:21:22;;;;;;;18.43;12.17;;;8.80;99.90;;;;;;4457363;32;20180;-75
2021/05/02 02:23:55;;;;;;;18.70;11.87;;;8.80;99.90;;;;;;4457271;32;20205;-75
2021/05/02 02:26:51;;;;;;;19.40;11.87;;;8.80;99.90;;;;;;4458585;32;20411;-75
2021/05/02 02:29:18;;;;;;;19.90;11.70;;;8.80;99.90;;;;;;4457481;32;20153;-75
2021/05/02 02:31:49;;;;;;;21.07;12.27;;;8.80;99.90;;;;;;4456687;32;20138;-75
2021/05/02 02:34:16;;;;;;;18.63;11.93;;;8.90;99.90;;;;;;4457240;32;20544;-75
2021/05/02 02:36:43;;;;;;;17.93;11.93;;;8.90;99.90;;;;;;4458391;32;20199;-75
2021/05/02 02:39:10;;;;;;;17.47;12.17;;;9.00;99.90;;;;;;4456954;32;20177;-75
2021/05/02 02:41:43;;;;;;;17.83;12.33;;;8.90;99.90;;;;;;4457416;32;20208;-75
2021/05/02 02:44:10;;;;;;;19.07;11.50;;;9.00;99.90;;;;;;4456995;32;20253;-75
2021/05/02 02:46:41;;;;;;;16.83;11.50;;;9.00;99.90;;;;;;4456399;32;20395;-75
2021/05/02 02:49:10;;;;;;;18.13;12.60;;;9.00;99.90;;;;;;4456972;32;20187;-75
2021/05/02 02:51:38;;;;;;;18.77;11.97;;;9.00;99.90;;;;;;4458399;32;20138;-75
2021/05/02 02:54:07;;;;;;;19.77;12.07;;;9.00;99.90;;;;;;4456705;32;20181;-75
2021/05/02 02:56:38;;;;;;;19.23;12.07;;;8.90;99.90;;;;;;4456855;32;20195;-75
2021/05/02 02:59:25;;;;;;;19.87;12.80;;;8.90;99.90;;;;;;4457876;32;20475;-75
2021/05/02 03:01:54;;;;;;;19.83;12.37;;;8.90;99.90;;;;;;4457067;32;20142;-75
2021/05/02 03:04:23;;;;;;;20.70;12.67;;;9.00;99.90;;;;;;4456491;32;20352;-75
2021/05/02 03:06:54;;;;;;;20.13;12.03;;;9.00;99.90;;;;;;4457585;32;20165;-74
2021/05/02 03:09:22;;;;;;;19.07;11.93;;;8.90;99.90;;;;;;4456709;32;20173;-75
2021/05/02 03:11:48;;;;;;;19.13;12.20;;;9.00;99.90;;;;;;4457307;32;20139;-75
2021/05/02 03:14:15;;;;;;;18.00;11.47;;;9.00;99.90;;;;;;4458330;32;20439;-75
2021/05/02 03:16:44;;;;;;;17.53;11.87;;;9.00;99.90;;;;;;4457763;32;20142;-74
2021/05/02 03:19:27;;;;;;;20.17;12.07;;;9.00;99.90;;;;;;4456005;32;20416;-74
2021/05/02 03:22:07;;;;;;;19.13;12.30;;;8.90;99.90;;;;;;4456501;32;20146;-74
2021/05/02 03:24:38;;;;;;;18.20;12.10;;;8.90;99.90;;;;;;4457958;32;20428;-74
2021/05/02 03:27:12;;;;;;;18.73;11.93;;;8.90;99.90;;;;;;4456469;32;20166;-74
2021/05/02 03:29:40;;;;;;;17.57;11.90;;;8.90;99.90;;;;;;4456608;32;20141;-72
2021/05/02 03:32:10;;;;;;;20.10;13.07;;;8.90;99.90;;;;;;4456315;32;20211;-74
2021/05/02 03:34:41;;;;;;;20.70;13.70;;;8.90;99.90;;;;;;4456255;32;20180;-74
2021/05/02 03:37:12;;;;;;;27.30;17.10;;;9.00;99.90;;;;;;4456495;32;20142;-74
2021/05/02 03:39:40;;;;;;;35.47;22.30;;;9.00;99.90;;;;;;4456700;32;20164;-74
2021/05/02 03:42:07;;;;;;;31.87;21.33;;;9.00;99.90;;;;;;4456109;32;20142;-74
2021/05/02 03:44:33;;;;;;;23.40;15.20;;;9.10;99.90;;;;;;4456545;32;20201;-74
2021/05/02 03:47:00;;;;;;;23.77;14.83;;;9.20;99.90;;;;;;4456344;32;20174;-74
2021/05/02 03:49:29;;;;;;;23.30;14.70;;;9.20;99.90;;;;;;4455997;32;20205;-75
2021/05/02 03:51:56;;;;;;;20.07;13.43;;;9.20;99.90;;;;;;4455915;32;20146;-75
2021/05/02 03:54:22;;;;;;;20.80;14.23;;;9.10;99.90;;;;;;4456380;32;20158;-75
2021/05/02 03:56:50;;;;;;;21.07;14.40;;;9.10;99.90;;;;;;4455925;32;20425;-75
2021/05/02 03:59:22;;;;;;;20.77;12.87;;;9.00;99.90;;;;;;4457398;32;20501;-74
2021/05/02 04:01:52;;;;;;;19.10;12.50;;;9.00;99.90;;;;;;4455866;32;20417;-74
2021/05/02 04:04:21;;;;;;;19.17;12.83;;;9.10;99.90;;;;;;4456000;32;20142;-74
2021/05/02 04:06:48;;;;;;;19.40;12.50;;;9.10;99.90;;;;;;4455785;32;20274;-73
2021/05/02 04:09:15;;;;;;;18.43;12.10;;;9.10;99.90;;;;;;4455800;32;20373;-74
2021/05/02 04:11:44;;;;;;;20.30;12.50;;;9.20;99.90;;;;;;4455722;32;20202;-74
2021/05/02 04:14:13;;;;;;;20.10;11.90;;;9.30;99.90;;;;;;4455757;32;20173;-74
2021/05/02 04:16:40;;;;;;;18.97;12.10;;;9.20;99.90;;;;;;4455657;32;20172;-74
2021/05/02 04:19:08;;;;;;;19.43;11.70;;;9.30;99.90;;;;;;4455590;32;20456;-74
2021/05/02 04:21:35;;;;;;;19.97;12.30;;;9.40;99.90;;;;;;4455634;32;20221;-74
2021/05/02 04:24:02;;;;;;;18.10;11.60;;;9.40;99.90;;;;;;4455481;32;20173;-74
2021/05/02 04:26:29;;;;;;;19.87;12.67;;;9.50;99.90;;;;;;4455452;32;20153;-74
2021/05/02 04:28:55;;;;;;;18.40;12.03;;;9.40;99.90;;;;;;4455404;32;20146;-74
2021/05/02 04:31:22;;;;;;;17.90;11.83;;;9.50;99.90;;;;;;4455516;32;20165;-74
2021/05/02 04:33:48;;;;;;;17.43;12.10;;;9.50;99.90;;;;;;4455416;32;20540;-74
2021/05/02 04:36:15;;;;;;;19.60;12.07;;;9.60;99.90;;;;;;4455417;32;20187;-74
2021/05/02 04:38:41;;;;;;;19.83;12.43;;;9.60;99.90;;;;;;4456908;32;20185;-74
2021/05/02 04:41:08;;;;;;;17.27;11.67;;;9.60;99.90;;;;;;4455299;32;20160;-73
2021/05/02 04:43:34;;;;;;;19.57;12.30;;;9.60;99.90;;;;;;4456632;32;20150;-75
2021/05/02 04:46:01;;;;;;;18.77;11.90;;;9.70;99.90;;;;;;4455321;32;20195;-75
2021/05/02 04:48:27;;;;;;;19.30;11.90;;;9.70;99.90;;;;;;4455276;32;20138;-75
2021/05/02 04:50:54;;;;;;;19.43;12.27;;;9.70;99.90;;;;;;4455285;32;20138;-73
2021/05/02 04:53:20;;;;;;;18.77;11.97;;;9.60;99.90;;;;;;4455074;32;20190;-73
2021/05/02 04:55:47;;;;;;;20.33;12.50;;;9.60;99.90;;;;;;4457035;32;20154;-74
2021/05/02 04:58:13;;;;;;;18.40;12.00;;;9.60;99.90;;;;;;4456706;32;20190;-74
2021/05/02 05:00:40;;;;;;;19.93;12.50;;;9.70;99.90;;;;;;4454739;32;20216;-74
2021/05/02 05:03:07;;;;;;;17.83;11.57;;;9.70;99.90;;;;;;4454591;32;20158;-74
2021/05/02 05:05:33;;;;;;;18.10;12.00;;;9.80;99.90;;;;;;4456631;32;20185;-74
2021/05/02 05:07:59;;;;;;;17.60;12.47;;;9.90;99.90;;;;;;4455011;32;20177;-74
2021/05/02 05:10:26;;;;;;;19.87;12.30;;;9.90;99.90;;;;;;4455099;32;20190;-74
2021/05/02 05:12:52;;;;;;;19.70;12.73;;;9.90;99.90;;;;;;4456090;32;20147;-74
2021/05/02 05:15:19;;;;;;;16.97;11.63;;;9.90;99.90;;;;;;4455259;32;20191;-74
2021/05/02 05:17:45;;;;;;;19.87;11.97;;;10.00;99.90;;;;;;4456479;32;20145;-74
2021/05/02 05:20:12;;;;;;;18.20;11.70;;;10.10;99.90;;;;;;4455045;32;20165;-74
2021/05/02 05:22:39;;;;;;;16.93;11.60;;;10.20;99.90;;;;;;4456698;32;20157;-74
2021/05/02 05:25:06;;;;;;;19.40;11.77;;;10.30;99.90;;;;;;4454962;32;20173;-74
2021/05/02 05:27:32;;;;;;;18.37;12.03;;;10.30;99.90;;;;;;4456506;32;20145;-74
2021/05/02 05:29:58;;;;;;;16.63;11.47;;;10.30;99.90;;;;;;4456503;32;20150;-74
2021/05/02 05:32:25;;;;;;;17.93;11.03;;;10.40;99.90;;;;;;4441065;32;20202;-74
2021/05/02 05:34:51;;;;;;;18.87;11.23;;;10.40;99.90;;;;;;4455781;32;20161;-74
2021/05/02 05:37:18;;;;;;;16.77;11.47;;;10.40;99.90;;;;;;4456423;32;20141;-74
2021/05/02 05:39:44;;;;;;;18.43;11.67;;;10.40;99.90;;;;;;4456578;32;20150;-74
2021/05/02 05:42:10;;;;;;;17.23;11.17;;;10.40;99.90;;;;;;4454849;32;20197;-74
2021/05/02 05:44:37;;;;;;;17.00;10.80;;;10.40;99.90;;;;;;4454752;32;20176;-74
2021/05/02 05:47:03;;;;;;;17.43;11.20;;;10.40;99.90;;;;;;4454859;32;20265;-74
2021/05/02 05:49:31;;;;;;;18.77;11.67;;;10.40;99.90;;;;;;4454787;32;20178;-74
2021/05/02 05:51:57;;;;;;;18.70;12.00;;;10.40;99.90;;;;;;4454775;32;20166;-74
2021/05/02 05:54:24;;;;;;;15.10;10.63;;;10.40;99.90;;;;;;4455192;32;20182;-74
2021/05/02 05:56:50;;;;;;;18.13;11.63;;;10.40;99.90;;;;;;4455813;32;20170;-73
2021/05/02 05:59:17;;;;;;;15.70;11.53;;;10.40;99.90;;;;;;4455560;32;20258;-73
2021/05/02 06:01:43;;;;;;;17.97;11.47;;;10.50;99.90;;;;;;4454793;32;20157;-74
2021/05/02 06:04:10;;;;;;;17.60;11.40;;;10.40;99.90;;;;;;4454740;32;20182;-76
2021/05/02 06:06:37;;;;;;;18.93;11.53;;;10.40;99.90;;;;;;4440835;32;20154;-73
2021/05/02 06:09:07;;;;;;;17.47;11.37;;;10.50;99.90;;;;;;4455809;32;20212;-74
2021/05/02 06:11:35;;;;;;;18.07;12.00;;;10.60;99.90;;;;;;4447339;32;20177;-74
2021/05/02 06:14:03;;;;;;;19.43;11.70;;;10.70;99.90;;;;;;4454304;32;20227;-74
2021/05/02 06:16:30;;;;;;;17.03;11.30;;;10.60;99.90;;;;;;4457999;32;20191;-73
2021/05/02 06:18:58;;;;;;;19.70;11.27;;;10.70;99.90;;;;;;4457945;32;20142;-74
2021/05/02 06:21:26;;;;;;;17.33;11.43;;;10.60;99.90;;;;;;4457614;32;20158;-74
2021/05/02 06:23:54;;;;;;;19.27;12.20;;;10.70;99.90;;;;;;4456649;32;20174;-73
2021/05/02 06:26:21;;;;;;;19.10;11.80;;;10.80;99.90;;;;;;4457185;32;20181;-74
2021/05/02 06:28:49;;;;;;;19.43;11.70;;;10.70;99.90;;;;;;4458954;32;20147;-74
2021/05/02 06:31:16;;;;;;;17.30;11.73;;;10.70;99.90;;;;;;4458686;32;20146;-74
2021/05/02 06:33:43;;;;;;;18.67;11.50;;;10.70;99.90;;;;;;4458663;32;20154;-73
2021/05/02 06:36:10;;;;;;;17.00;11.27;;;10.70;99.90;;;;;;4457204;32;20146;-74
2021/05/02 06:38:37;;;;;;;16.80;11.50;;;10.70;99.90;;;;;;4458586;32;20467;-74
2021/05/02 06:41:04;;;;;;;16.07;10.67;;;10.70;99.90;;;;;;4457290;32;20184;-74
2021/05/02 06:43:31;;;;;;;16.23;11.10;;;10.80;99.90;;;;;;4458692;32;20185;-73
2021/05/02 06:45:57;;;;;;;15.70;10.20;;;10.80;99.90;;;;;;4458239;32;20198;-73
2021/05/02 06:48:24;;;;;;;17.07;11.50;;;10.90;99.90;;;;;;4456897;32;20188;-73
2021/05/02 06:50:51;;;;;;;17.37;11.63;;;10.80;99.90;;;;;;4456666;32;20200;-73
2021/05/02 06:53:19;;;;;;;15.97;10.97;;;10.80;99.90;;;;;;4458146;32;20146;-74
2021/05/02 06:55:45;;;;;;;16.43;11.30;;;10.80;99.90;;;;;;4458271;32;20190;-73
2021/05/02 06:58:12;;;;;;;15.90;11.27;;;10.90;99.90;;;;;;4458295;32;20177;-73
2021/05/02 07:00:39;;;;;;;18.37;11.07;;;10.90;99.90;;;;;;4454531;32;20211;-73
2021/05/02 07:03:06;;;;;;;15.03;10.63;;;10.90;99.90;;;;;;4456288;32;20222;-70
2021/05/02 07:05:34;;;;;;;16.33;11.40;;;11.00;99.90;;;;;;4457078;32;20495;-70
2021/05/02 07:08:00;;;;;;;16.47;10.90;;;11.00;99.90;;;;;;4456622;32;20202;-70
2021/05/02 07:10:28;;;;;;;15.47;10.63;;;10.90;99.90;;;;;;4457841;32;20221;-71
2021/05/02 07:12:54;;;;;;;15.00;10.77;;;11.00;99.90;;;;;;4457762;32;20401;-70
2021/05/02 07:15:20;;;;;;;16.27;10.27;;;11.00;99.90;;;;;;4456262;32;20498;-70
2021/05/02 07:17:48;;;;;;;15.87;10.97;;;11.00;99.90;;;;;;4455664;32;20151;-70
2021/05/02 07:20:16;;;;;;;17.17;10.20;;;11.10;99.90;;;;;;4458219;32;20197;-70
2021/05/02 07:22:50;;;;;;;14.80;10.03;;;11.10;99.90;;;;;;4455956;32;20440;-69
2021/05/02 07:25:17;;;;;;;13.13;9.70;;;11.20;99.90;;;;;;4457469;32;20142;-70
2021/05/02 07:27:43;;;;;;;16.13;10.60;;;11.20;99.90;;;;;;4456488;32;20514;-69
2021/05/02 07:30:10;;;;;;;14.33;10.23;;;11.20;99.90;;;;;;4455744;32;20211;-72
2021/05/02 07:32:36;;;;;;;14.03;10.27;;;11.10;99.90;;;;;;4457413;32;20206;-72
2021/05/02 07:35:03;;;;;;;15.33;10.47;;;11.20;99.90;;;;;;4455936;32;20480;-74
2021/05/02 07:37:30;;;;;;;14.47;10.23;;;11.10;99.90;;;;;;4455399;32;20165;-73
2021/05/02 07:39:56;;;;;;;15.50;11.00;;;11.10;99.90;;;;;;4455918;32;20147;-74
2021/05/02 07:42:23;;;;;;;15.20;10.53;;;11.10;99.90;;;;;;4456326;32;20166;-73
2021/05/02 07:44:52;;;;;;;15.87;9.97;;;11.00;99.90;;;;;;4456460;32;20490;-74
2021/05/02 07:47:19;;;;;;;16.73;11.43;;;10.90;99.90;;;;;;4455983;32;20158;-74
2021/05/02 07:49:49;;;;;;;16.50;11.17;;;10.90;99.90;;;;;;4456004;32;20146;-72
2021/05/02 07:52:15;;;;;;;16.43;11.10;;;10.90;99.90;;;;;;4456597;32;20158;-72
2021/05/02 07:54:43;;;;;;;16.40;10.87;;;10.90;99.90;;;;;;4455483;32;20207;-72
2021/05/02 07:57:10;;;;;;;18.17;10.77;;;10.80;99.90;;;;;;4455710;32;20162;-72
2021/05/02 07:59:38;;;;;;;15.70;10.63;;;10.80;99.90;;;;;;4455808;32;20193;-73
2021/05/02 08:02:06;;;;;;;16.97;11.23;;;10.80;99.90;;;;;;4455818;32;20438;-73
2021/05/02 08:04:38;;;;;;;14.80;10.80;;;10.80;99.90;;;;;;4441956;32;20194;-73
2021/05/02 08:07:08;;;;;;;15.63;11.00;;;10.70;99.90;;;;;;4455410;32;20218;-73
2021/05/02 08:09:35;;;;;;;16.97;10.90;;;10.70;99.90;;;;;;4455385;32;20440;-72
2021/05/02 08:12:02;;;;;;;16.20;11.20;;;10.70;99.90;;;;;;4455825;32;20165;-73
2021/05/02 08:14:30;;;;;;;16.50;10.83;;;10.60;99.90;;;;;;4456520;32;20149;-73
2021/05/02 08:16:56;;;;;;;17.73;11.70;;;10.60;99.90;;;;;;4455675;32;20150;-74
2021/05/02 08:19:23;;;;;;;17.53;11.80;;;10.60;99.90;;;;;;4455558;32;20418;-74
2021/05/02 08:21:51;;;;;;;18.73;11.97;;;10.60;99.90;;;;;;4457176;32;20147;-75
2021/05/02 08:24:17;;;;;;;16.53;11.30;;;10.70;99.90;;;;;;4455350;32;20161;-74
2021/05/02 08:26:44;;;;;;;17.53;11.73;;;10.70;99.90;;;;;;4455460;32;20147;-75
2021/05/02 08:29:10;;;;;;;15.97;11.17;;;10.80;99.90;;;;;;4455413;32;20200;-74
2021/05/02 08:31:37;;;;;;;15.93;11.40;;;10.90;99.90;;;;;;4455574;32;20197;-75
2021/05/02 08:34:04;;;;;;;15.77;11.40;;;10.90;99.90;;;;;;4455430;32;20149;-75
2021/05/02 08:36:31;;;;;;;15.13;10.90;;;10.80;99.90;;;;;;4454940;32;20185;-74
2021/05/02 08:38:59;;;;;;;15.67;11.33;;;10.80;99.90;;;;;;4454930;32;20187;-74
2021/05/02 08:41:26;;;;;;;17.30;11.93;;;10.70;99.90;;;;;;4455313;32;20162;-74
2021/05/02 08:44:00;;;;;;;16.73;11.50;;;10.60;99.90;;;;;;4455341;32;20158;-74
2021/05/02 08:46:26;;;;;;;16.03;11.43;;;10.70;99.90;;;;;;4455545;32;20146;-73
2021/05/02 08:48:53;;;;;;;18.47;11.63;;;10.70;99.90;;;;;;4457093;32;20193;-72
2021/05/02 08:51:19;;;;;;;19.10;12.37;;;10.60;99.90;;;;;;4455237;32;20165;-72
2021/05/02 08:53:46;;;;;;;19.50;12.73;;;10.50;99.90;;;;;;4454518;32;20522;-72
2021/05/02 08:56:13;;;;;;;18.70;12.70;;;10.40;99.90;;;;;;4456770;32;20174;-72
2021/05/02 08:58:39;;;;;;;19.90;12.60;;;10.40;99.90;;;;;;4456136;32;20154;-72
2021/05/02 09:01:06;;;;;;;18.60;12.67;;;10.30;99.90;;;;;;4455156;32;20409;-72
2021/05/02 09:03:44;;;;;;;20.60;13.37;;;10.30;99.90;;;;;;4456551;32;20176;-72
2021/05/02 09:06:23;;;;;;;18.83;12.60;;;10.20;99.90;;;;;;4455206;32;20267;-73
2021/05/02 09:08:51;;;;;;;22.33;14.40;;;10.20;99.90;;;;;;4455138;32;20146;-72
2021/05/02 09:11:33;;;;;;;21.60;13.90;;;10.10;99.90;;;;;;4456434;32;20165;-73
2021/05/02 09:14:02;;;;;;;21.23;14.27;;;10.10;99.90;;;;;;4455963;32;20190;-73
2021/05/02 09:16:42;;;;;;;21.47;14.83;;;10.10;99.90;;;;;;4440475;32;20185;-73
2021/05/02 09:19:10;;;;;;;23.50;14.20;;;10.10;99.90;;;;;;4455560;32;20197;-72
2021/05/02 09:21:36;;;;;;;21.53;14.37;;;10.20;99.90;;;;;;4455076;32;20182;-72
2021/05/02 09:24:07;;;;;;;22.27;14.23;;;10.20;99.90;;;;;;4455698;32;20161;-73
2021/05/02 09:26:37;;;;;;;21.37;13.87;;;10.20;99.90;;;;;;4455309;32;20177;-72
2021/05/02 09:29:07;;;;;;;22.37;14.33;;;10.30;99.90;;;;;;4455069;32;20362;-72
2021/05/02 09:31:36;;;;;;;21.03;14.03;;;10.30;99.90;;;;;;4456177;32;20165;-72
2021/05/02 09:34:17;;;;;;;21.27;14.63;;;10.30;99.90;;;;;;4454970;32;20145;-72
2021/05/02 09:36:57;;;;;;;24.00;15.17;;;10.20;99.90;;;;;;4456333;32;20450;-68
2021/05/02 09:39:46;;;;;;;24.93;15.53;;;10.30;99.90;;;;;;4455366;32;20146;-68
2021/05/02 09:42:22;;;;;;;21.70;14.93;;;10.30;99.90;;;;;;4454814;32;20416;-67
2021/05/02 09:44:56;;;;;;;22.90;15.07;;;10.20;99.90;;;;;;4456262;32;20146;-67
2021/05/02 09:47:29;;;;;;;23.67;15.10;;;10.20;99.90;;;;;;4455896;32;20172;-68
2021/05/02 09:50:20;;;;;;;23.97;15.53;;;10.20;99.90;;;;;;4456256;32;20134;-67
2021/05/02 09:53:01;;;;;;;21.93;15.77;;;10.20;99.90;;;;;;4450795;32;20226;-67
2021/05/02 09:55:39;;;;;;;25.30;16.87;;;10.20;99.90;;;;;;4457162;32;20514;-67
2021/05/02 09:58:15;;;;;;;25.33;16.70;;;10.10;99.90;;;;;;4458189;32;20138;-67
2021/05/02 10:00:50;;;;;;;32.00;17.17;;;10.00;99.90;;;;;;4459018;32;20220;-67
2021/05/02 10:03:18;;;;;;;28.17;17.97;;;10.00;99.90;;;;;;4458303;32;20154;-67
2021/05/02 10:05:59;;;;;;;27.90;16.90;;;10.10;99.90;;;;;;4458475;32;20134;-67
2021/05/02 10:08:30;;;;;;;27.70;17.67;;;10.00;99.90;;;;;;4458644;32;20203;-67
2021/05/02 10:10:58;;;;;;;26.90;17.40;;;10.00;99.90;;;;;;4459051;32;20146;-65
2021/05/02 10:13:25;;;;;;;29.83;18.20;;;10.00;99.90;;;;;;4458954;32;20186;-67
2021/05/02 10:15:52;;;;;;;29.50;18.13;;;10.00;99.90;;;;;;4458872;32;20146;-65
2021/05/02 10:18:18;;;;;;;31.47;18.97;;;10.00;99.90;;;;;;4457134;32;20143;-65
2021/05/02 10:20:47;;;;;;;30.20;19.07;;;10.00;99.90;;;;;;4457081;32;20138;-65
2021/05/02 10:23:14;;;;;;;32.73;19.57;;;10.00;99.90;;;;;;4457185;32;20200;-65
2021/05/02 10:25:41;;;;;;;29.17;18.73;;;10.00;99.90;;;;;;4457908;32;20142;-66
2021/05/02 10:28:08;;;;;;;29.37;18.57;;;10.00;99.90;;;;;;4456312;32;20139;-66
2021/05/02 10:30:41;;;;;;;30.73;18.93;;;10.00;99.90;;;;;;4456416;32;20138;-67
2021/05/02 10:33:10;;;;;;;28.33;19.43;;;10.10;99.90;;;;;;4457788;32;20184;-66
2021/05/02 10:35:51;;;;;;;29.70;18.37;;;10.10;99.90;;;;;;4456202;32;20146;-66
2021/05/02 10:38:41;;;;;;;27.87;18.90;;;10.10;99.90;;;;;;4458170;32;20190;-67
2021/05/02 10:41:20;;;;;;;29.17;18.87;;;10.20;99.90;;;;;;4456913;32;20150;-66
2021/05/02 10:43:46;;;;;;;29.13;19.03;;;10.20;99.90;;;;;;4456325;32;20294;-66
2021/05/02 10:46:41;;;;;;;27.67;18.93;;;10.20;99.90;;;;;;4442303;32;20166;-66
2021/05/02 10:49:09;;;;;;;29.07;18.07;;;10.30;99.90;;;;;;4458028;32;20170;-66
2021/05/02 10:51:35;;;;;;;29.80;19.10;;;10.20;99.90;;;;;;4458063;32;20142;-65
2021/05/02 10:54:10;;;;;;;27.10;18.27;;;10.30;99.90;;;;;;4456543;32;20170;-65
2021/05/02 10:56:44;;;;;;;29.83;18.73;;;10.30;99.90;;;;;;4457471;32;20482;-65
2021/05/02 10:59:11;;;;;;;30.97;19.60;;;10.40;99.90;;;;;;4456328;32;20204;-65
2021/05/02 11:01:38;;;;;;;31.87;19.20;;;10.40;99.90;;;;;;4455977;32;20282;-64
2021/05/02 11:04:05;;;;;;;30.03;19.93;;;10.40;99.90;;;;;;4456949;32;20203;-65
2021/05/02 11:06:38;;;;;;;28.33;19.30;;;10.50;99.90;;;;;;4457109;32;20195;-66
2021/05/02 11:09:09;;;;;;;30.93;20.50;;;10.50;99.90;;;;;;4457756;32;20210;-66
2021/05/02 11:11:38;;;;;;;30.83;20.00;;;10.40;99.90;;;;;;4457753;32;20399;-65
2021/05/02 11:14:11;;;;;;;29.57;20.13;;;10.40;99.90;;;;;;4457771;32;20206;-66
2021/05/02 11:16:48;;;;;;;31.17;19.97;;;10.50;99.90;;;;;;4457611;32;20165;-66
2021/05/02 11:19:19;;;;;;;33.87;21.83;;;10.50;99.90;;;;;;4457549;32;20154;-66
2021/05/02 11:21:49;;;;;;;31.97;20.93;;;10.60;99.90;;;;;;4455677;32;20199;-65
2021/05/02 11:24:16;;;;;;;33.90;21.03;;;10.70;99.90;;;;;;4456353;32;20440;-64
2021/05/02 11:32:28;;;;;;;32.57;20.67;;;10.70;99.90;;;;;;4457815;32;20212;-66
2021/05/02 11:35:00;;;;;;;33.50;21.90;;;10.70;99.90;;;;;;4456796;32;20167;-64
2021/05/02 11:37:53;;;;;;;36.80;22.73;;;10.80;99.90;;;;;;4455867;32;20145;-65
2021/05/02 11:40:19;;;;;;;34.53;22.47;;;10.80;99.90;;;;;;4455725;32;20135;-65
2021/05/02 11:43:00;;;;;;;36.47;23.13;;;10.90;99.90;;;;;;4455814;32;20183;-65
2021/05/02 11:45:40;;;;;;;36.13;23.40;;;10.90;99.90;;;;;;4456373;32;20197;-65
2021/05/02 11:48:07;;;;;;;36.47;23.67;;;11.00;99.90;;;;;;4455487;32;20146;-71
2021/05/02 11:50:40;;;;;;;36.83;24.00;;;11.00;99.90;;;;;;4456905;32;20143;-66
2021/05/02 11:53:07;;;;;;;35.50;22.90;;;11.10;99.90;;;;;;4455809;32;20191;-67
2021/05/02 11:55:42;;;;;;;37.83;24.60;;;11.20;99.90;;;;;;4455602;32;20408;-66
2021/05/02 11:58:14;;;;;;;37.73;24.57;;;11.30;99.90;;;;;;4455517;32;20141;-64
2021/05/02 12:00:48;;;;;;;36.17;24.50;;;11.30;99.90;;;;;;4457303;32;20139;-65
2021/05/02 12:03:17;;;;;;;40.67;26.03;;;11.30;99.90;;;;;;4456315;32;20388;-66
2021/05/02 12:05:56;;;;;;;38.80;25.17;;;11.40;99.90;;;;;;4456893;32;20177;-66
2021/05/02 12:08:24;;;;;;;37.90;25.17;;;11.60;99.90;;;;;;4456929;32;20145;-66
2021/05/02 12:10:53;;;;;;;39.67;26.03;;;11.80;99.90;;;;;;4455631;32;20170;-65
2021/05/02 12:13:39;;;;;;;38.00;24.50;;;11.90;99.90;;;;;;4455475;32;20190;-66
2021/05/02 12:16:16;;;;;;;35.73;23.17;;;11.80;99.90;;;;;;4456920;32;20168;-66
2021/05/02 12:19:06;;;;;;;37.97;24.40;;;11.80;99.90;;;;;;4456654;32;20166;-68
2021/05/02 12:21:43;;;;;;;36.33;24.43;;;11.90;99.90;;;;;;4456418;32;20193;-65
2021/05/02 12:24:11;;;;;;;39.17;25.47;;;11.90;99.90;;;;;;4456455;32;20217;-65
2021/05/02 12:26:53;;;;;;;37.90;25.47;;;11.90;99.90;;;;;;4456833;32;20449;-66
2021/05/02 12:29:22;;;;;;;38.90;25.40;;;12.00;99.90;;;;;;4456690;32;20461;-66
2021/05/02 12:31:54;;;;;;;43.00;26.67;;;12.00;99.90;;;;;;4454145;32;20158;-66
2021/05/02 12:34:25;;;;;;;42.27;26.30;;;11.90;99.90;;;;;;4455237;32;20348;-67
2021/05/02 12:36:55;;;;;;;43.70;28.73;;;11.90;99.90;;;;;;4455583;32;20499;-65
2021/05/02 12:39:31;;;;;;;48.00;28.67;;;11.90;99.90;;;;;;4456503;32;20223;-66
2021/05/02 12:41:58;;;;;;;44.27;28.20;;;12.00;99.90;;;;;;4455558;32;20150;-65
2021/05/02 12:44:27;;;;;;;44.40;29.40;;;12.00;99.90;;;;;;4455971;32;20521;-65
2021/05/02 12:46:59;;;;;;;44.00;28.37;;;12.10;99.90;;;;;;4455227;32;20254;-66
2021/05/02 12:49:35;;;;;;;43.90;28.90;;;12.20;99.90;;;;;;4456653;32;20165;-67